sensor_id;sensor_type;location;lat;lon;timestamp;P1;durP1;ratioP1;P2;durP2;ratioP2
46363;SDS011;32071;49.036;9.344;2024-01-25T00:01:07;14.77;;;3.30;;
46363;SDS011;32071;49.036;9.344;2024-01-25T00:03:33;15.17;;;3.77;;
46363;SDS011;32071;49.036;9.344;2024-01-25T00:05:58;12.30;;;4.00;;
46363;SDS011;32071;49.036;9.344;2024-01-25T00:08:25;11.67;;;3.37;;
46363;SDS011;32071;49.036;9.344;2024-01-25T00:10:50;12.13;;;3.77;;
46363;SDS011;32071;49.036;9.344;2024-01-25T00:13:16;10.67;;;3.57;;
46363;SDS011;32071;49.036;9.344;2024-01-25T00:15:42;15.50;;;3.30;;
46363;SDS011;32071;49.036;9.344;2024-01-25T00:18:07;19.00;;;3.60;;
46363;SDS011;32071;49.036;9.344;2024-01-25T00:20:33;13.00;;;3.03;;
46363;SDS011;32071;49.036;9.344;2024-01-25T00:22:58;16.73;;;4.43;;
46363;SDS011;32071;49.036;9.344;2024-01-25T00:25:24;10.10;;;3.20;;
46363;SDS011;32071;49.036;9.344;2024-01-25T00:27:50;11.93;;;3.60;;
46363;SDS011;32071;49.036;9.344;2024-01-25T00:30:15;14.10;;;3.23;;
46363;SDS011;32071;49.036;9.344;2024-01-25T00:32:41;17.63;;;3.90;;
46363;SDS011;32071;49.036;9.344;2024-01-25T00:35:06;7.37;;;3.33;;
46363;SDS011;32071;49.036;9.344;2024-01-25T00:37:35;12.63;;;3.70;;
46363;SDS011;32071;49.036;9.344;2024-01-25T00:40:03;14.33;;;3.60;;
46363;SDS011;32071;49.036;9.344;2024-01-25T00:42:30;20.30;;;3.23;;
46363;SDS011;32071;49.036;9.344;2024-01-25T00:44:56;8.77;;;3.37;;
46363;SDS011;32071;49.036;9.344;2024-01-25T00:47:21;8.27;;;2.77;;
46363;SDS011;32071;49.036;9.344;2024-01-25T00:49:47;11.90;;;2.80;;
46363;SDS011;32071;49.036;9.344;2024-01-25T00:52:13;11.73;;;3.47;;
46363;SDS011;32071;49.036;9.344;2024-01-25T00:54:39;10.07;;;3.43;;
46363;SDS011;32071;49.036;9.344;2024-01-25T00:57:05;23.93;;;5.60;;
46363;SDS011;32071;49.036;9.344;2024-01-25T00:59:31;10.17;;;3.40;;
46363;SDS011;32071;49.036;9.344;2024-01-25T01:01:58;15.10;;;3.53;;
46363;SDS011;32071;49.036;9.344;2024-01-25T01:04:24;19.30;;;4.47;;
46363;SDS011;32071;49.036;9.344;2024-01-25T01:06:51;18.97;;;3.63;;
46363;SDS011;32071;49.036;9.344;2024-01-25T01:09:17;12.17;;;4.20;;
46363;SDS011;32071;49.036;9.344;2024-01-25T01:11:43;20.43;;;3.50;;
46363;SDS011;32071;49.036;9.344;2024-01-25T01:14:10;14.00;;;3.87;;
46363;SDS011;32071;49.036;9.344;2024-01-25T01:16:35;11.47;;;3.67;;
46363;SDS011;32071;49.036;9.344;2024-01-25T01:19:01;16.73;;;4.60;;
46363;SDS011;32071;49.036;9.344;2024-01-25T01:21:35;19.63;;;4.87;;
46363;SDS011;32071;49.036;9.344;2024-01-25T01:24:00;16.10;;;4.23;;
46363;SDS011;32071;49.036;9.344;2024-01-25T01:26:26;16.57;;;3.50;;
46363;SDS011;32071;49.036;9.344;2024-01-25T01:28:52;12.33;;;3.17;;
46363;SDS011;32071;49.036;9.344;2024-01-25T01:31:17;14.50;;;3.73;;
46363;SDS011;32071;49.036;9.344;2024-01-25T01:33:43;20.37;;;4.80;;
46363;SDS011;32071;49.036;9.344;2024-01-25T01:36:09;10.40;;;2.80;;
46363;SDS011;32071;49.036;9.344;2024-01-25T01:38:35;17.23;;;3.50;;
46363;SDS011;32071;49.036;9.344;2024-01-25T01:41:01;14.10;;;3.67;;
46363;SDS011;32071;49.036;9.344;2024-01-25T01:43:27;24.63;;;3.73;;
46363;SDS011;32071;49.036;9.344;2024-01-25T01:45:53;14.73;;;3.63;;
46363;SDS011;32071;49.036;9.344;2024-01-25T01:48:24;13.30;;;4.13;;
46363;SDS011;32071;49.036;9.344;2024-01-25T01:50:49;11.20;;;2.80;;
46363;SDS011;32071;49.036;9.344;2024-01-25T01:53:15;14.03;;;3.27;;
46363;SDS011;32071;49.036;9.344;2024-01-25T01:55:42;24.57;;;4.33;;
46363;SDS011;32071;49.036;9.344;2024-01-25T01:58:07;16.73;;;4.20;;
46363;SDS011;32071;49.036;9.344;2024-01-25T02:00:33;12.00;;;4.37;;
46363;SDS011;32071;49.036;9.344;2024-01-25T02:02:59;9.93;;;3.50;;
46363;SDS011;32071;49.036;9.344;2024-01-25T02:05:25;12.17;;;2.90;;
46363;SDS011;32071;49.036;9.344;2024-01-25T02:07:50;13.43;;;3.33;;
46363;SDS011;32071;49.036;9.344;2024-01-25T02:10:17;19.17;;;5.30;;
46363;SDS011;32071;49.036;9.344;2024-01-25T02:12:43;18.37;;;3.47;;
46363;SDS011;32071;49.036;9.344;2024-01-25T02:15:08;23.23;;;4.70;;
46363;SDS011;32071;49.036;9.344;2024-01-25T02:17:34;17.30;;;3.60;;
46363;SDS011;32071;49.036;9.344;2024-01-25T02:20:00;13.67;;;3.40;;
46363;SDS011;32071;49.036;9.344;2024-01-25T02:22:27;13.03;;;3.50;;
46363;SDS011;32071;49.036;9.344;2024-01-25T02:24:53;13.47;;;3.80;;
46363;SDS011;32071;49.036;9.344;2024-01-25T02:27:18;13.53;;;6.30;;
46363;SDS011;32071;49.036;9.344;2024-01-25T02:29:44;11.60;;;4.07;;
46363;SDS011;32071;49.036;9.344;2024-01-25T02:32:10;11.33;;;3.80;;
46363;SDS011;32071;49.036;9.344;2024-01-25T02:34:35;24.67;;;3.87;;
46363;SDS011;32071;49.036;9.344;2024-01-25T02:37:01;19.50;;;4.00;;
46363;SDS011;32071;49.036;9.344;2024-01-25T02:39:27;18.37;;;3.43;;
46363;SDS011;32071;49.036;9.344;2024-01-25T02:41:53;11.13;;;2.73;;
46363;SDS011;32071;49.036;9.344;2024-01-25T02:44:18;12.73;;;4.47;;
46363;SDS011;32071;49.036;9.344;2024-01-25T02:46:44;15.23;;;4.10;;
46363;SDS011;32071;49.036;9.344;2024-01-25T02:49:11;10.77;;;3.47;;
46363;SDS011;32071;49.036;9.344;2024-01-25T02:51:36;10.20;;;3.57;;
46363;SDS011;32071;49.036;9.344;2024-01-25T02:54:02;13.73;;;4.00;;
46363;SDS011;32071;49.036;9.344;2024-01-25T02:56:28;12.33;;;3.47;;
46363;SDS011;32071;49.036;9.344;2024-01-25T02:58:59;13.73;;;3.93;;
46363;SDS011;32071;49.036;9.344;2024-01-25T03:01:25;12.70;;;4.30;;
46363;SDS011;32071;49.036;9.344;2024-01-25T03:03:51;12.87;;;3.50;;
46363;SDS011;32071;49.036;9.344;2024-01-25T03:06:16;9.83;;;3.07;;
46363;SDS011;32071;49.036;9.344;2024-01-25T03:08:42;14.10;;;3.80;;
46363;SDS011;32071;49.036;9.344;2024-01-25T03:11:07;18.30;;;4.40;;
46363;SDS011;32071;49.036;9.344;2024-01-25T03:13:33;12.57;;;3.80;;
46363;SDS011;32071;49.036;9.344;2024-01-25T03:15:59;12.90;;;3.87;;
46363;SDS011;32071;49.036;9.344;2024-01-25T03:18:25;12.23;;;4.10;;
46363;SDS011;32071;49.036;9.344;2024-01-25T03:20:50;16.83;;;3.93;;
46363;SDS011;32071;49.036;9.344;2024-01-25T03:23:16;15.80;;;4.07;;
46363;SDS011;32071;49.036;9.344;2024-01-25T03:25:42;21.37;;;5.10;;
46363;SDS011;32071;49.036;9.344;2024-01-25T03:28:07;12.80;;;4.17;;
46363;SDS011;32071;49.036;9.344;2024-01-25T03:30:34;20.83;;;6.00;;
46363;SDS011;32071;49.036;9.344;2024-01-25T03:33:00;18.80;;;4.20;;
46363;SDS011;32071;49.036;9.344;2024-01-25T03:35:25;19.53;;;4.60;;
46363;SDS011;32071;49.036;9.344;2024-01-25T03:37:51;8.93;;;3.63;;
46363;SDS011;32071;49.036;9.344;2024-01-25T03:40:17;18.60;;;4.67;;
46363;SDS011;32071;49.036;9.344;2024-01-25T03:42:42;10.30;;;3.63;;
46363;SDS011;32071;49.036;9.344;2024-01-25T03:45:08;13.30;;;4.53;;
46363;SDS011;32071;49.036;9.344;2024-01-25T03:47:33;16.23;;;4.73;;
46363;SDS011;32071;49.036;9.344;2024-01-25T03:49:59;17.40;;;4.40;;
46363;SDS011;32071;49.036;9.344;2024-01-25T03:52:25;12.77;;;3.80;;
46363;SDS011;32071;49.036;9.344;2024-01-25T03:54:50;13.80;;;3.80;;
46363;SDS011;32071;49.036;9.344;2024-01-25T03:57:16;12.50;;;4.10;;
46363;SDS011;32071;49.036;9.344;2024-01-25T03:59:41;21.40;;;4.50;;
46363;SDS011;32071;49.036;9.344;2024-01-25T04:02:07;16.27;;;4.50;;
46363;SDS011;32071;49.036;9.344;2024-01-25T04:04:34;13.30;;;3.10;;
46363;SDS011;32071;49.036;9.344;2024-01-25T04:06:59;15.23;;;5.00;;
46363;SDS011;32071;49.036;9.344;2024-01-25T04:09:25;18.17;;;4.90;;
46363;SDS011;32071;49.036;9.344;2024-01-25T04:11:51;12.53;;;3.90;;
46363;SDS011;32071;49.036;9.344;2024-01-25T04:14:16;11.93;;;3.90;;
46363;SDS011;32071;49.036;9.344;2024-01-25T04:16:42;15.47;;;3.87;;
46363;SDS011;32071;49.036;9.344;2024-01-25T04:19:07;10.00;;;3.73;;
46363;SDS011;32071;49.036;9.344;2024-01-25T04:21:37;12.30;;;3.87;;
46363;SDS011;32071;49.036;9.344;2024-01-25T04:24:03;17.13;;;3.70;;
46363;SDS011;32071;49.036;9.344;2024-01-25T04:26:29;13.30;;;3.73;;
46363;SDS011;32071;49.036;9.344;2024-01-25T04:28:55;13.83;;;3.63;;
46363;SDS011;32071;49.036;9.344;2024-01-25T04:31:20;15.57;;;4.43;;
46363;SDS011;32071;49.036;9.344;2024-01-25T04:33:46;11.17;;;3.50;;
46363;SDS011;32071;49.036;9.344;2024-01-25T04:36:11;11.87;;;4.20;;
46363;SDS011;32071;49.036;9.344;2024-01-25T04:38:37;10.80;;;3.03;;
46363;SDS011;32071;49.036;9.344;2024-01-25T04:41:02;12.93;;;3.40;;
46363;SDS011;32071;49.036;9.344;2024-01-25T04:43:28;14.30;;;4.03;;
46363;SDS011;32071;49.036;9.344;2024-01-25T04:45:58;17.20;;;4.60;;
46363;SDS011;32071;49.036;9.344;2024-01-25T04:48:23;12.50;;;6.30;;
46363;SDS011;32071;49.036;9.344;2024-01-25T04:50:49;16.37;;;5.00;;
46363;SDS011;32071;49.036;9.344;2024-01-25T04:53:15;18.53;;;4.93;;
46363;SDS011;32071;49.036;9.344;2024-01-25T04:55:40;20.97;;;4.43;;
46363;SDS011;32071;49.036;9.344;2024-01-25T04:58:06;16.33;;;4.60;;
46363;SDS011;32071;49.036;9.344;2024-01-25T05:00:31;13.27;;;4.90;;
46363;SDS011;32071;49.036;9.344;2024-01-25T05:02:57;11.90;;;4.00;;
46363;SDS011;32071;49.036;9.344;2024-01-25T05:05:22;15.40;;;4.17;;
46363;SDS011;32071;49.036;9.344;2024-01-25T05:07:48;12.73;;;4.57;;
46363;SDS011;32071;49.036;9.344;2024-01-25T05:10:13;13.50;;;4.60;;
46363;SDS011;32071;49.036;9.344;2024-01-25T05:12:39;17.17;;;4.53;;
46363;SDS011;32071;49.036;9.344;2024-01-25T05:15:05;18.00;;;4.57;;
46363;SDS011;32071;49.036;9.344;2024-01-25T05:17:30;12.50;;;3.60;;
46363;SDS011;32071;49.036;9.344;2024-01-25T05:19:56;13.97;;;4.67;;
46363;SDS011;32071;49.036;9.344;2024-01-25T05:22:22;12.97;;;4.23;;
46363;SDS011;32071;49.036;9.344;2024-01-25T05:24:48;12.90;;;4.57;;
46363;SDS011;32071;49.036;9.344;2024-01-25T05:27:13;8.03;;;3.20;;
46363;SDS011;32071;49.036;9.344;2024-01-25T05:29:39;13.20;;;3.80;;
46363;SDS011;32071;49.036;9.344;2024-01-25T05:32:04;12.70;;;3.40;;
46363;SDS011;32071;49.036;9.344;2024-01-25T05:34:30;8.97;;;3.67;;
46363;SDS011;32071;49.036;9.344;2024-01-25T05:36:56;18.20;;;3.83;;
46363;SDS011;32071;49.036;9.344;2024-01-25T05:39:21;13.30;;;4.77;;
46363;SDS011;32071;49.036;9.344;2024-01-25T05:41:47;16.40;;;4.67;;
46363;SDS011;32071;49.036;9.344;2024-01-25T05:44:12;11.47;;;4.63;;
46363;SDS011;32071;49.036;9.344;2024-01-25T05:46:38;18.57;;;5.00;;
46363;SDS011;32071;49.036;9.344;2024-01-25T05:49:03;15.07;;;4.10;;
46363;SDS011;32071;49.036;9.344;2024-01-25T05:51:29;14.90;;;5.10;;
46363;SDS011;32071;49.036;9.344;2024-01-25T05:53:55;15.23;;;4.20;;
46363;SDS011;32071;49.036;9.344;2024-01-25T05:56:21;12.57;;;5.10;;
46363;SDS011;32071;49.036;9.344;2024-01-25T05:58:46;20.67;;;4.20;;
46363;SDS011;32071;49.036;9.344;2024-01-25T06:01:12;11.30;;;4.30;;
46363;SDS011;32071;49.036;9.344;2024-01-25T06:03:38;18.63;;;4.37;;
46363;SDS011;32071;49.036;9.344;2024-01-25T06:06:03;16.23;;;4.00;;
46363;SDS011;32071;49.036;9.344;2024-01-25T06:08:29;17.40;;;5.43;;
46363;SDS011;32071;49.036;9.344;2024-01-25T06:10:54;13.97;;;4.87;;
46363;SDS011;32071;49.036;9.344;2024-01-25T06:13:20;13.63;;;4.83;;
46363;SDS011;32071;49.036;9.344;2024-01-25T06:15:46;17.40;;;5.10;;
46363;SDS011;32071;49.036;9.344;2024-01-25T06:18:11;14.50;;;5.53;;
46363;SDS011;32071;49.036;9.344;2024-01-25T06:20:37;16.67;;;6.17;;
46363;SDS011;32071;49.036;9.344;2024-01-25T06:23:02;23.83;;;7.60;;
46363;SDS011;32071;49.036;9.344;2024-01-25T06:25:28;15.87;;;6.10;;
46363;SDS011;32071;49.036;9.344;2024-01-25T06:27:56;17.60;;;5.90;;
46363;SDS011;32071;49.036;9.344;2024-01-25T06:30:22;15.47;;;5.07;;
46363;SDS011;32071;49.036;9.344;2024-01-25T06:32:48;14.33;;;4.90;;
46363;SDS011;32071;49.036;9.344;2024-01-25T06:35:13;17.50;;;5.37;;
46363;SDS011;32071;49.036;9.344;2024-01-25T06:37:39;13.87;;;5.03;;
46363;SDS011;32071;49.036;9.344;2024-01-25T06:40:05;11.43;;;3.90;;
46363;SDS011;32071;49.036;9.344;2024-01-25T06:42:31;13.27;;;4.57;;
46363;SDS011;32071;49.036;9.344;2024-01-25T06:44:57;14.97;;;4.93;;
46363;SDS011;32071;49.036;9.344;2024-01-25T06:47:22;15.57;;;5.00;;
46363;SDS011;32071;49.036;9.344;2024-01-25T06:49:48;18.03;;;6.03;;
46363;SDS011;32071;49.036;9.344;2024-01-25T06:52:16;13.93;;;5.10;;
46363;SDS011;32071;49.036;9.344;2024-01-25T06:54:42;13.90;;;4.73;;
46363;SDS011;32071;49.036;9.344;2024-01-25T06:57:08;18.97;;;5.50;;
46363;SDS011;32071;49.036;9.344;2024-01-25T06:59:33;15.50;;;4.80;;
46363;SDS011;32071;49.036;9.344;2024-01-25T07:01:59;13.50;;;5.30;;
46363;SDS011;32071;49.036;9.344;2024-01-25T07:04:25;11.83;;;4.73;;
46363;SDS011;32071;49.036;9.344;2024-01-25T07:06:51;12.30;;;3.60;;
46363;SDS011;32071;49.036;9.344;2024-01-25T07:09:16;12.77;;;2.93;;
46363;SDS011;32071;49.036;9.344;2024-01-25T07:11:42;8.63;;;3.67;;
46363;SDS011;32071;49.036;9.344;2024-01-25T07:14:07;10.63;;;4.13;;
46363;SDS011;32071;49.036;9.344;2024-01-25T07:16:33;7.00;;;3.23;;
46363;SDS011;32071;49.036;9.344;2024-01-25T07:18:58;22.10;;;6.03;;
46363;SDS011;32071;49.036;9.344;2024-01-25T07:21:24;11.03;;;3.90;;
46363;SDS011;32071;49.036;9.344;2024-01-25T07:23:49;15.23;;;4.57;;
46363;SDS011;32071;49.036;9.344;2024-01-25T07:26:18;6.87;;;3.23;;
46363;SDS011;32071;49.036;9.344;2024-01-25T07:28:44;6.60;;;2.50;;
46363;SDS011;32071;49.036;9.344;2024-01-25T07:31:11;12.83;;;3.40;;
46363;SDS011;32071;49.036;9.344;2024-01-25T07:33:36;10.63;;;3.67;;
46363;SDS011;32071;49.036;9.344;2024-01-25T07:36:02;15.40;;;4.50;;
46363;SDS011;32071;49.036;9.344;2024-01-25T07:38:28;12.90;;;5.33;;
46363;SDS011;32071;49.036;9.344;2024-01-25T07:40:53;17.83;;;5.60;;
46363;SDS011;32071;49.036;9.344;2024-01-25T07:43:20;14.77;;;5.27;;
46363;SDS011;32071;49.036;9.344;2024-01-25T07:45:46;21.90;;;6.40;;
46363;SDS011;32071;49.036;9.344;2024-01-25T07:48:11;22.50;;;6.00;;
46363;SDS011;32071;49.036;9.344;2024-01-25T07:50:37;15.47;;;5.03;;
46363;SDS011;32071;49.036;9.344;2024-01-25T07:53:02;19.70;;;5.47;;
46363;SDS011;32071;49.036;9.344;2024-01-25T07:55:28;14.23;;;5.33;;
46363;SDS011;32071;49.036;9.344;2024-01-25T07:57:54;15.10;;;4.80;;
46363;SDS011;32071;49.036;9.344;2024-01-25T08:00:20;25.00;;;7.40;;
46363;SDS011;32071;49.036;9.344;2024-01-25T08:02:46;15.90;;;6.10;;
46363;SDS011;32071;49.036;9.344;2024-01-25T08:05:11;13.93;;;5.60;;
46363;SDS011;32071;49.036;9.344;2024-01-25T08:07:37;11.63;;;5.93;;
46363;SDS011;32071;49.036;9.344;2024-01-25T08:10:03;19.30;;;6.47;;
46363;SDS011;32071;49.036;9.344;2024-01-25T08:12:30;17.60;;;5.77;;
46363;SDS011;32071;49.036;9.344;2024-01-25T08:14:55;21.00;;;7.03;;
46363;SDS011;32071;49.036;9.344;2024-01-25T08:17:21;18.93;;;10.07;;
46363;SDS011;32071;49.036;9.344;2024-01-25T08:19:46;21.20;;;9.17;;
46363;SDS011;32071;49.036;9.344;2024-01-25T08:22:12;23.73;;;8.83;;
46363;SDS011;32071;49.036;9.344;2024-01-25T08:24:41;16.53;;;7.63;;
46363;SDS011;32071;49.036;9.344;2024-01-25T08:27:06;15.20;;;5.90;;
46363;SDS011;32071;49.036;9.344;2024-01-25T08:29:35;23.93;;;7.20;;
46363;SDS011;32071;49.036;9.344;2024-01-25T08:32:02;17.13;;;5.50;;
46363;SDS011;32071;49.036;9.344;2024-01-25T08:34:28;27.43;;;6.83;;
46363;SDS011;32071;49.036;9.344;2024-01-25T08:36:53;19.13;;;5.50;;
46363;SDS011;32071;49.036;9.344;2024-01-25T08:39:19;14.30;;;4.07;;
46363;SDS011;32071;49.036;9.344;2024-01-25T08:41:45;17.73;;;4.13;;
46363;SDS011;32071;49.036;9.344;2024-01-25T08:44:11;13.80;;;4.20;;
46363;SDS011;32071;49.036;9.344;2024-01-25T08:46:37;16.50;;;4.63;;
46363;SDS011;32071;49.036;9.344;2024-01-25T08:49:03;13.50;;;5.07;;
46363;SDS011;32071;49.036;9.344;2024-01-25T08:51:33;14.60;;;4.60;;
46363;SDS011;32071;49.036;9.344;2024-01-25T08:53:59;19.67;;;5.07;;
46363;SDS011;32071;49.036;9.344;2024-01-25T08:56:24;12.60;;;4.67;;
46363;SDS011;32071;49.036;9.344;2024-01-25T08:58:50;19.47;;;6.07;;
46363;SDS011;32071;49.036;9.344;2024-01-25T09:01:17;23.93;;;6.43;;
46363;SDS011;32071;49.036;9.344;2024-01-25T09:03:42;21.63;;;5.80;;
46363;SDS011;32071;49.036;9.344;2024-01-25T09:06:08;16.97;;;5.80;;
46363;SDS011;32071;49.036;9.344;2024-01-25T09:08:34;16.70;;;4.63;;
46363;SDS011;32071;49.036;9.344;2024-01-25T09:11:00;17.80;;;4.40;;
46363;SDS011;32071;49.036;9.344;2024-01-25T09:13:25;19.93;;;5.80;;
46363;SDS011;32071;49.036;9.344;2024-01-25T09:15:51;17.73;;;4.67;;
46363;SDS011;32071;49.036;9.344;2024-01-25T09:18:16;19.67;;;5.07;;
46363;SDS011;32071;49.036;9.344;2024-01-25T09:20:42;15.80;;;5.00;;
46363;SDS011;32071;49.036;9.344;2024-01-25T09:23:13;16.90;;;5.53;;
46363;SDS011;32071;49.036;9.344;2024-01-25T09:25:40;11.37;;;4.10;;
46363;SDS011;32071;49.036;9.344;2024-01-25T09:28:06;20.03;;;5.20;;
46363;SDS011;32071;49.036;9.344;2024-01-25T09:30:32;25.53;;;5.10;;
46363;SDS011;32071;49.036;9.344;2024-01-25T09:32:57;18.90;;;4.20;;
46363;SDS011;32071;49.036;9.344;2024-01-25T09:35:23;17.33;;;5.77;;
46363;SDS011;32071;49.036;9.344;2024-01-25T09:37:48;13.37;;;4.53;;
46363;SDS011;32071;49.036;9.344;2024-01-25T09:40:17;20.20;;;4.50;;
46363;SDS011;32071;49.036;9.344;2024-01-25T09:42:45;19.43;;;4.90;;
46363;SDS011;32071;49.036;9.344;2024-01-25T09:45:15;34.30;;;6.83;;
46363;SDS011;32071;49.036;9.344;2024-01-25T09:47:43;14.00;;;4.00;;
46363;SDS011;32071;49.036;9.344;2024-01-25T09:50:09;17.13;;;4.03;;
46363;SDS011;32071;49.036;9.344;2024-01-25T09:52:35;13.90;;;5.33;;
46363;SDS011;32071;49.036;9.344;2024-01-25T09:55:01;12.43;;;3.77;;
46363;SDS011;32071;49.036;9.344;2024-01-25T09:57:31;15.20;;;4.70;;
46363;SDS011;32071;49.036;9.344;2024-01-25T10:00:00;16.67;;;4.13;;
46363;SDS011;32071;49.036;9.344;2024-01-25T10:02:26;22.77;;;6.10;;
46363;SDS011;32071;49.036;9.344;2024-01-25T10:04:51;15.30;;;5.90;;
46363;SDS011;32071;49.036;9.344;2024-01-25T10:07:34;13.77;;;4.17;;
46363;SDS011;32071;49.036;9.344;2024-01-25T10:10:04;19.97;;;4.80;;
46363;SDS011;32071;49.036;9.344;2024-01-25T10:12:31;18.73;;;5.17;;
46363;SDS011;32071;49.036;9.344;2024-01-25T10:14:56;27.37;;;5.20;;
46363;SDS011;32071;49.036;9.344;2024-01-25T10:17:22;16.03;;;4.90;;
46363;SDS011;32071;49.036;9.344;2024-01-25T10:19:48;22.50;;;5.00;;
46363;SDS011;32071;49.036;9.344;2024-01-25T10:22:13;15.63;;;4.80;;
46363;SDS011;32071;49.036;9.344;2024-01-25T10:24:39;17.80;;;5.87;;
46363;SDS011;32071;49.036;9.344;2024-01-25T10:27:07;30.57;;;5.90;;
46363;SDS011;32071;49.036;9.344;2024-01-25T10:29:35;24.90;;;5.30;;
46363;SDS011;32071;49.036;9.344;2024-01-25T10:32:05;16.10;;;4.70;;
46363;SDS011;32071;49.036;9.344;2024-01-25T10:34:32;13.57;;;4.23;;
46363;SDS011;32071;49.036;9.344;2024-01-25T10:37:02;23.53;;;5.77;;
46363;SDS011;32071;49.036;9.344;2024-01-25T10:39:30;16.10;;;4.70;;
46363;SDS011;32071;49.036;9.344;2024-01-25T10:41:56;12.50;;;4.73;;
46363;SDS011;32071;49.036;9.344;2024-01-25T10:44:24;12.20;;;4.03;;
46363;SDS011;32071;49.036;9.344;2024-01-25T10:46:50;12.43;;;4.30;;
46363;SDS011;32071;49.036;9.344;2024-01-25T10:49:16;9.87;;;3.83;;
46363;SDS011;32071;49.036;9.344;2024-01-25T10:51:43;14.13;;;6.57;;
46363;SDS011;32071;49.036;9.344;2024-01-25T10:54:10;12.00;;;4.10;;
46363;SDS011;32071;49.036;9.344;2024-01-25T10:56:37;12.57;;;3.30;;
46363;SDS011;32071;49.036;9.344;2024-01-25T10:59:05;13.00;;;3.23;;
46363;SDS011;32071;49.036;9.344;2024-01-25T11:01:31;17.60;;;4.33;;
46363;SDS011;32071;49.036;9.344;2024-01-25T11:03:59;15.30;;;3.87;;
46363;SDS011;32071;49.036;9.344;2024-01-25T11:06:26;9.20;;;3.17;;
46363;SDS011;32071;49.036;9.344;2024-01-25T11:08:54;25.07;;;3.93;;
46363;SDS011;32071;49.036;9.344;2024-01-25T11:11:29;8.90;;;3.67;;
46363;SDS011;32071;49.036;9.344;2024-01-25T11:13:56;16.47;;;4.60;;
46363;SDS011;32071;49.036;9.344;2024-01-25T11:16:29;18.43;;;4.40;;
46363;SDS011;32071;49.036;9.344;2024-01-25T11:18:56;15.33;;;3.70;;
46363;SDS011;32071;49.036;9.344;2024-01-25T11:21:42;15.93;;;6.03;;
46363;SDS011;32071;49.036;9.344;2024-01-25T11:24:21;18.30;;;4.17;;
46363;SDS011;32071;49.036;9.344;2024-01-25T11:26:49;13.93;;;4.07;;
46363;SDS011;32071;49.036;9.344;2024-01-25T11:29:15;19.17;;;3.77;;
46363;SDS011;32071;49.036;9.344;2024-01-25T11:31:45;14.43;;;4.17;;
46363;SDS011;32071;49.036;9.344;2024-01-25T11:34:11;18.30;;;4.50;;
46363;SDS011;32071;49.036;9.344;2024-01-25T11:36:38;14.80;;;3.70;;
46363;SDS011;32071;49.036;9.344;2024-01-25T11:39:04;14.07;;;3.87;;
46363;SDS011;32071;49.036;9.344;2024-01-25T11:41:31;13.47;;;3.57;;
46363;SDS011;32071;49.036;9.344;2024-01-25T11:43:57;12.27;;;3.90;;
46363;SDS011;32071;49.036;9.344;2024-01-25T11:46:23;11.70;;;4.20;;
46363;SDS011;32071;49.036;9.344;2024-01-25T11:48:50;12.80;;;4.20;;
46363;SDS011;32071;49.036;9.344;2024-01-25T11:51:16;17.30;;;3.73;;
46363;SDS011;32071;49.036;9.344;2024-01-25T11:53:42;15.97;;;4.40;;
46363;SDS011;32071;49.036;9.344;2024-01-25T11:56:10;11.73;;;4.00;;
46363;SDS011;32071;49.036;9.344;2024-01-25T11:58:37;13.80;;;3.80;;
46363;SDS011;32071;49.036;9.344;2024-01-25T12:01:05;16.43;;;4.50;;
46363;SDS011;32071;49.036;9.344;2024-01-25T12:03:33;12.47;;;4.57;;
46363;SDS011;32071;49.036;9.344;2024-01-25T12:06:00;13.17;;;4.27;;
46363;SDS011;32071;49.036;9.344;2024-01-25T12:08:26;10.77;;;4.90;;
46363;SDS011;32071;49.036;9.344;2024-01-25T12:11:02;14.70;;;3.80;;
46363;SDS011;32071;49.036;9.344;2024-01-25T12:13:31;8.10;;;3.30;;
46363;SDS011;32071;49.036;9.344;2024-01-25T12:15:57;15.53;;;4.90;;
46363;SDS011;32071;49.036;9.344;2024-01-25T12:18:23;11.77;;;5.70;;
46363;SDS011;32071;49.036;9.344;2024-01-25T12:20:49;19.23;;;4.30;;
46363;SDS011;32071;49.036;9.344;2024-01-25T12:23:15;16.10;;;4.87;;
46363;SDS011;32071;49.036;9.344;2024-01-25T12:25:41;16.00;;;5.00;;
46363;SDS011;32071;49.036;9.344;2024-01-25T12:28:06;12.83;;;3.13;;
46363;SDS011;32071;49.036;9.344;2024-01-25T12:30:32;6.80;;;3.33;;
46363;SDS011;32071;49.036;9.344;2024-01-25T12:32:58;15.80;;;4.60;;
46363;SDS011;32071;49.036;9.344;2024-01-25T12:35:23;12.27;;;4.67;;
46363;SDS011;32071;49.036;9.344;2024-01-25T12:37:49;12.50;;;5.30;;
46363;SDS011;32071;49.036;9.344;2024-01-25T12:40:14;11.47;;;4.20;;
46363;SDS011;32071;49.036;9.344;2024-01-25T12:42:40;10.93;;;4.07;;
46363;SDS011;32071;49.036;9.344;2024-01-25T12:45:05;11.10;;;3.20;;
46363;SDS011;32071;49.036;9.344;2024-01-25T12:47:32;11.50;;;3.70;;
46363;SDS011;32071;49.036;9.344;2024-01-25T12:49:58;11.13;;;3.37;;
46363;SDS011;32071;49.036;9.344;2024-01-25T12:52:23;9.00;;;3.63;;
46363;SDS011;32071;49.036;9.344;2024-01-25T12:54:49;9.47;;;3.43;;
46363;SDS011;32071;49.036;9.344;2024-01-25T12:57:14;10.30;;;3.00;;
46363;SDS011;32071;49.036;9.344;2024-01-25T12:59:40;13.20;;;3.73;;
46363;SDS011;32071;49.036;9.344;2024-01-25T13:02:06;9.13;;;3.20;;
46363;SDS011;32071;49.036;9.344;2024-01-25T13:04:32;15.40;;;3.13;;
46363;SDS011;32071;49.036;9.344;2024-01-25T13:06:58;10.37;;;3.30;;
46363;SDS011;32071;49.036;9.344;2024-01-25T13:09:25;7.03;;;2.93;;
46363;SDS011;32071;49.036;9.344;2024-01-25T13:11:50;8.77;;;2.80;;
46363;SDS011;32071;49.036;9.344;2024-01-25T13:14:17;8.97;;;3.03;;
46363;SDS011;32071;49.036;9.344;2024-01-25T13:16:43;9.83;;;3.20;;
46363;SDS011;32071;49.036;9.344;2024-01-25T13:19:09;8.60;;;3.27;;
46363;SDS011;32071;49.036;9.344;2024-01-25T13:21:36;8.40;;;3.13;;
46363;SDS011;32071;49.036;9.344;2024-01-25T13:24:02;11.63;;;2.80;;
46363;SDS011;32071;49.036;9.344;2024-01-25T13:26:27;9.00;;;3.43;;
46363;SDS011;32071;49.036;9.344;2024-01-25T13:28:53;13.43;;;2.67;;
46363;SDS011;32071;49.036;9.344;2024-01-25T13:31:19;14.53;;;3.50;;
46363;SDS011;32071;49.036;9.344;2024-01-25T13:33:44;8.23;;;3.87;;
46363;SDS011;32071;49.036;9.344;2024-01-25T13:36:12;10.60;;;3.40;;
46363;SDS011;32071;49.036;9.344;2024-01-25T13:38:39;7.67;;;2.87;;
46363;SDS011;32071;49.036;9.344;2024-01-25T13:41:05;8.70;;;3.20;;
46363;SDS011;32071;49.036;9.344;2024-01-25T13:43:31;22.60;;;4.73;;
46363;SDS011;32071;49.036;9.344;2024-01-25T13:45:56;9.17;;;2.77;;
46363;SDS011;32071;49.036;9.344;2024-01-25T13:48:22;10.47;;;4.27;;
46363;SDS011;32071;49.036;9.344;2024-01-25T13:50:48;9.13;;;3.33;;
46363;SDS011;32071;49.036;9.344;2024-01-25T13:53:13;14.30;;;3.30;;
46363;SDS011;32071;49.036;9.344;2024-01-25T13:55:39;8.70;;;3.00;;
46363;SDS011;32071;49.036;9.344;2024-01-25T13:58:04;8.80;;;3.43;;
46363;SDS011;32071;49.036;9.344;2024-01-25T14:00:30;4.87;;;3.03;;
46363;SDS011;32071;49.036;9.344;2024-01-25T14:02:56;10.63;;;2.90;;
46363;SDS011;32071;49.036;9.344;2024-01-25T14:05:21;8.67;;;3.20;;
46363;SDS011;32071;49.036;9.344;2024-01-25T14:07:47;7.20;;;3.27;;
46363;SDS011;32071;49.036;9.344;2024-01-25T14:10:12;10.77;;;4.70;;
46363;SDS011;32071;49.036;9.344;2024-01-25T14:12:38;8.40;;;3.53;;
46363;SDS011;32071;49.036;9.344;2024-01-25T14:15:04;11.57;;;3.20;;
46363;SDS011;32071;49.036;9.344;2024-01-25T14:17:29;5.40;;;3.37;;
46363;SDS011;32071;49.036;9.344;2024-01-25T14:19:55;9.70;;;3.00;;
46363;SDS011;32071;49.036;9.344;2024-01-25T14:22:20;6.33;;;2.60;;
46363;SDS011;32071;49.036;9.344;2024-01-25T14:24:46;4.53;;;2.70;;
46363;SDS011;32071;49.036;9.344;2024-01-25T14:27:12;7.90;;;3.47;;
46363;SDS011;32071;49.036;9.344;2024-01-25T14:29:38;10.60;;;4.50;;